Time;durP1;ratioP1;P1;durP2;ratioP2;P2;SDS_P1;SDS_P2;PMS_P1;PMS_P2;Temp;Humidity;BMP_temperature;BMP_pressure;BME280_temperature;BME280_humidity;BME280_pressure;Samples;Min_cycle;Max_cycle;Signal;HPM_P1;HPM_P2
2022/07/01 00:00:24;;;;;;;10.35;5.57;;;12.40;99.90;;;;;;5060754;28;20124;-71
2022/07/01 00:02:51;;;;;;;14.80;7.55;;;12.40;99.90;;;;;;5052816;28;20028;-72
2022/07/01 00:05:20;;;;;;;5.82;3.38;;;12.40;99.90;;;;;;5052679;28;20506;-71
2022/07/01 00:07:47;;;;;;;19.10;8.52;;;12.50;99.90;;;;;;5061006;28;20048;-72
2022/07/01 00:10:15;;;;;;;60.47;29.67;;;12.50;99.90;;;;;;5043459;28;20025;-71
2022/07/01 00:12:43;;;;;;;25.77;14.63;;;12.60;99.90;;;;;;5053978;28;20037;-72
2022/07/01 00:15:11;;;;;;;15.43;7.60;;;12.70;99.90;;;;;;5057081;28;20017;-71
2022/07/01 00:17:39;;;;;;;22.92;10.85;;;12.70;99.90;;;;;;5042345;28;20029;-71
2022/07/01 00:20:07;;;;;;;41.45;21.33;;;12.80;99.90;;;;;;5041705;28;20360;-71
2022/07/01 00:22:35;;;;;;;25.10;12.55;;;12.80;99.90;;;;;;5048434;28;20068;-72
2022/07/01 00:25:03;;;;;;;25.65;12.07;;;12.90;99.90;;;;;;5051900;28;20363;-72
2022/07/01 00:27:30;;;;;;;39.40;16.73;;;13.00;99.90;;;;;;5056141;28;20060;-72
2022/07/01 00:29:58;;;;;;;50.50;26.33;;;13.00;99.90;;;;;;5064653;28;20029;-71
2022/07/01 00:32:25;;;;;;;30.55;17.40;;;13.00;99.90;;;;;;5049117;28;20336;-70
2022/07/01 00:34:53;;;;;;;19.55;11.85;;;13.10;99.90;;;;;;5041383;28;20048;-70
2022/07/01 00:37:20;;;;;;;5.13;3.65;;;13.20;99.90;;;;;;5044048;28;20033;-72
2022/07/01 00:39:48;;;;;;;1.98;1.30;;;13.20;99.90;;;;;;5059808;28;20028;-70
2022/07/01 00:42:15;;;;;;;1.10;0.77;;;13.20;99.90;;;;;;5048340;28;20106;-69
2022/07/01 00:44:42;;;;;;;3.08;2.05;;;13.20;99.90;;;;;;5055327;28;20048;-72
2022/07/01 00:47:12;;;;;;;2.38;1.60;;;13.20;99.90;;;;;;5051722;28;20044;-70
2022/07/01 00:49:40;;;;;;;2.92;1.05;;;13.20;99.90;;;;;;5058544;28;20613;-70
2022/07/01 00:52:09;;;;;;;1.42;0.80;;;13.20;99.90;;;;;;5053710;28;20127;-70
2022/07/01 00:54:38;;;;;;;2.63;1.30;;;13.20;99.90;;;;;;5060503;28;20504;-70
2022/07/01 00:57:12;;;;;;;2.83;1.00;;;13.20;99.90;;;;;;5048087;28;20494;-69
2022/07/01 00:59:40;;;;;;;1.50;1.10;;;13.10;99.90;;;;;;5056215;28;20029;-70
2022/07/01 01:02:09;;;;;;;2.42;1.02;;;13.10;99.90;;;;;;5048691;28;20094;-70
2022/07/01 01:04:36;;;;;;;2.75;1.42;;;13.00;99.90;;;;;;5049736;28;20131;-70
2022/07/01 01:07:04;;;;;;;4.82;1.20;;;13.00;99.90;;;;;;5041642;28;20036;-71
2022/07/01 01:09:33;;;;;;;1.67;0.77;;;13.00;99.90;;;;;;5050545;28;20044;-70
2022/07/01 01:12:01;;;;;;;1.25;0.90;;;12.90;99.90;;;;;;5049157;28;20119;-69
2022/07/01 01:14:29;;;;;;;3.17;1.23;;;12.90;99.90;;;;;;5050271;28;20335;-69
2022/07/01 01:16:56;;;;;;;2.33;1.02;;;12.90;99.90;;;;;;5046888;28;20028;-70
2022/07/01 01:19:23;;;;;;;1.73;1.13;;;13.00;99.90;;;;;;5050345;28;20345;-70
2022/07/01 01:21:51;;;;;;;2.25;0.80;;;13.00;99.90;;;;;;5051249;28;20059;-70
2022/07/01 01:24:18;;;;;;;1.50;0.95;;;13.10;99.90;;;;;;5049031;28;20078;-70
2022/07/01 01:26:46;;;;;;;1.70;1.13;;;13.10;99.90;;;;;;5045600;28;20375;-72
2022/07/01 01:29:13;;;;;;;0.63;0.40;;;13.20;99.90;;;;;;5054249;28;20063;-71
2022/07/01 01:31:41;;;;;;;3.55;0.90;;;13.20;99.90;;;;;;5047119;28;20033;-70
2022/07/01 01:34:09;;;;;;;2.03;1.33;;;13.20;99.90;;;;;;5056206;28;20025;-69
2022/07/01 01:36:37;;;;;;;1.10;0.73;;;13.20;99.90;;;;;;5050485;28;20308;-72
2022/07/01 01:39:25;;;;;;;5.10;0.90;;;13.20;99.90;;;;;;5058691;28;20025;-71
2022/07/01 01:41:52;;;;;;;1.80;0.85;;;13.20;99.90;;;;;;5046743;28;20049;-72
2022/07/01 01:44:22;;;;;;;1.45;1.05;;;13.20;99.90;;;;;;5037720;28;20131;-73
2022/07/01 01:46:49;;;;;;;0.70;0.70;;;13.20;99.90;;;;;;5048138;28;20048;-73
2022/07/01 01:49:16;;;;;;;2.45;1.02;;;13.30;99.90;;;;;;5054830;28;20032;-72
2022/07/01 01:51:44;;;;;;;2.42;0.85;;;13.30;99.90;;;;;;5043907;28;20044;-76
2022/07/01 01:54:11;;;;;;;1.42;0.68;;;13.30;99.90;;;;;;5044743;28;20037;-74
2022/07/01 01:56:38;;;;;;;0.85;0.60;;;13.30;99.90;;;;;;5044963;28;20035;-74
2022/07/01 01:59:06;;;;;;;0.70;0.43;;;13.30;99.90;;;;;;5050664;28;20029;-75
2022/07/01 02:01:34;;;;;;;1.48;0.80;;;13.40;99.90;;;;;;5041774;28;20033;-74
2022/07/01 02:04:01;;;;;;;1.65;0.85;;;13.40;99.90;;;;;;5042203;28;20029;-76
2022/07/01 02:06:28;;;;;;;2.50;0.80;;;13.50;99.90;;;;;;5052721;28;20032;-75
2022/07/01 02:08:56;;;;;;;4.78;0.70;;;13.50;99.90;;;;;;5055344;28;20047;-74
2022/07/01 02:11:23;;;;;;;1.27;0.82;;;13.50;99.90;;;;;;5036710;28;20025;-75
2022/07/01 02:13:50;;;;;;;2.08;0.57;;;13.60;99.90;;;;;;5060679;28;20059;-74
2022/07/01 02:16:18;;;;;;;2.22;0.68;;;13.50;99.90;;;;;;5049077;28;20033;-75
2022/07/01 02:18:45;;;;;;;1.65;0.85;;;13.60;99.90;;;;;;5048147;28;20029;-74
2022/07/01 02:21:13;;;;;;;3.70;0.85;;;13.60;99.90;;;;;;5055533;28;20119;-77
2022/07/01 02:23:40;;;;;;;1.38;0.50;;;13.50;99.90;;;;;;5056334;28;20086;-76
2022/07/01 02:26:07;;;;;;;3.55;0.52;;;13.50;99.90;;;;;;5054092;28;20042;-75
2022/07/01 02:28:35;;;;;;;1.27;0.52;;;13.50;99.90;;;;;;5043988;28;20028;-75
2022/07/01 02:31:05;;;;;;;1.48;0.60;;;13.60;99.90;;;;;;5042885;28;20040;-76
2022/07/01 02:33:32;;;;;;;1.42;0.60;;;13.60;99.90;;;;;;5054455;28;20027;-75
2022/07/01 02:36:00;;;;;;;1.85;0.63;;;13.60;99.90;;;;;;5042692;28;20537;-74
2022/07/01 02:38:27;;;;;;;0.73;0.43;;;13.50;99.90;;;;;;5046787;28;20040;-75
2022/07/01 02:40:54;;;;;;;0.95;0.55;;;13.50;99.90;;;;;;5038843;28;20052;-73
2022/07/01 02:43:22;;;;;;;2.95;0.88;;;13.60;99.90;;;;;;5044942;28;20517;-73
2022/07/01 02:45:49;;;;;;;1.67;0.20;;;13.50;99.90;;;;;;5042090;28;20033;-75
2022/07/01 02:48:16;;;;;;;2.03;0.60;;;13.60;99.90;;;;;;5043125;28;20037;-74
2022/07/01 02:50:44;;;;;;;0.82;0.60;;;13.60;99.90;;;;;;5043343;28;20021;-74
2022/07/01 02:53:11;;;;;;;0.85;0.50;;;13.60;99.90;;;;;;5048857;28;20402;-74
2022/07/01 02:55:38;;;;;;;2.25;0.60;;;13.60;99.90;;;;;;5043438;28;20117;-75
2022/07/01 02:58:06;;;;;;;0.60;0.50;;;13.60;99.90;;;;;;5054203;28;20029;-73
2022/07/01 03:00:33;;;;;;;1.77;0.80;;;13.60;99.90;;;;;;5045932;28;20403;-74
2022/07/01 03:03:00;;;;;;;5.03;0.60;;;13.60;99.90;;;;;;5046531;28;20033;-73
2022/07/01 03:05:28;;;;;;;1.00;0.70;;;13.60;99.90;;;;;;5040758;28;20067;-73
2022/07/01 03:07:55;;;;;;;1.27;0.60;;;13.60;99.90;;;;;;5049331;28;20029;-74
2022/07/01 03:10:22;;;;;;;1.42;0.65;;;13.50;99.90;;;;;;5044424;28;20025;-74
2022/07/01 03:12:50;;;;;;;1.02;0.88;;;13.50;99.90;;;;;;5035638;28;20032;-75
2022/07/01 03:15:17;;;;;;;1.95;0.50;;;13.50;99.90;;;;;;5036438;28;20478;-75
2022/07/01 03:17:48;;;;;;;1.15;0.55;;;13.40;99.90;;;;;;5038083;28;20055;-74
2022/07/01 03:20:17;;;;;;;1.55;1.00;;;13.30;99.90;;;;;;5024609;28;20025;-74
2022/07/01 03:22:46;;;;;;;0.70;0.45;;;13.30;99.90;;;;;;5044543;28;20033;-71
2022/07/01 03:25:13;;;;;;;0.50;0.50;;;13.20;99.90;;;;;;5042520;28;20302;-74
2022/07/01 03:27:44;;;;;;;0.85;0.63;;;13.20;99.90;;;;;;5046456;28;20383;-72
2022/07/01 03:30:14;;;;;;;3.53;0.90;;;13.20;99.90;;;;;;5047122;28;20364;-74
2022/07/01 03:32:41;;;;;;;0.88;0.35;;;13.20;99.90;;;;;;5047906;28;20041;-72
2022/07/01 03:37:57;;;;;;;1.38;0.55;;;13.20;99.90;;;;;;5030422;28;20048;-72
2022/07/01 03:40:24;;;;;;;0.90;0.30;;;13.10;99.90;;;;;;5031881;28;20635;-72
2022/07/01 03:42:52;;;;;;;1.27;1.10;;;13.20;99.90;;;;;;5028299;28;20045;-72
2022/07/01 03:45:19;;;;;;;3.28;0.50;;;13.10;99.90;;;;;;5029437;28;20026;-73
2022/07/01 03:47:51;;;;;;;1.33;1.17;;;13.10;99.90;;;;;;5031802;28;20108;-72
2022/07/01 03:50:21;;;;;;;4.22;1.65;;;13.10;99.90;;;;;;5029851;28;20100;-72
2022/07/01 03:52:48;;;;;;;0.77;0.38;;;13.10;99.90;;;;;;5040937;28;20487;-74
2022/07/01 03:55:16;;;;;;;1.98;0.40;;;13.10;99.90;;;;;;5039591;28;21414;-73
2022/07/01 03:57:43;;;;;;;3.05;1.10;;;13.10;99.90;;;;;;5031439;28;20041;-74
2022/07/01 04:00:11;;;;;;;2.33;1.00;;;13.10;99.90;;;;;;5033333;28;20047;-73
2022/07/01 04:02:39;;;;;;;4.28;1.80;;;13.10;99.90;;;;;;5031707;28;20124;-73
2022/07/01 04:05:07;;;;;;;22.02;12.07;;;13.10;99.90;;;;;;5030439;28;20638;-73
2022/07/01 04:07:35;;;;;;;9.27;6.22;;;13.00;99.90;;;;;;5028275;28;20025;-73
2022/07/01 04:10:03;;;;;;;3.55;2.53;;;13.00;99.90;;;;;;5030476;28;20132;-73
2022/07/01 04:12:30;;;;;;;2.70;2.00;;;13.00;99.90;;;;;;5027992;28;20025;-73
2022/07/01 04:14:58;;;;;;;3.85;2.60;;;13.00;99.90;;;;;;5029461;28;20021;-74
2022/07/01 04:17:25;;;;;;;2.60;2.40;;;13.00;99.90;;;;;;5030598;28;20022;-73
2022/07/01 04:19:52;;;;;;;2.72;1.58;;;13.00;99.90;;;;;;5032302;28;20445;-73
2022/07/01 04:22:38;;;;;;;2.03;1.23;;;12.90;99.90;;;;;;5029382;28;20127;-73
2022/07/01 04:25:07;;;;;;;1.53;1.33;;;12.90;99.90;;;;;;5035233;28;20028;-72
2022/07/01 04:27:34;;;;;;;2.47;0.90;;;12.90;99.90;;;;;;5037244;28;20325;-72
2022/07/01 04:30:02;;;;;;;1.92;1.20;;;12.90;99.90;;;;;;5041873;28;20493;-73
2022/07/01 04:32:30;;;;;;;4.15;1.10;;;12.80;99.90;;;;;;5031020;28;20523;-73
2022/07/01 04:34:58;;;;;;;1.08;0.50;;;12.80;99.90;;;;;;5026833;28;20053;-72
2022/07/01 04:37:25;;;;;;;2.25;0.50;;;12.80;99.90;;;;;;5028410;28;20033;-73
2022/07/01 04:39:52;;;;;;;3.10;0.50;;;12.70;99.90;;;;;;5034190;28;20089;-72
2022/07/01 04:42:21;;;;;;;2.08;0.93;;;12.70;99.90;;;;;;5030965;28;20029;-72
2022/07/01 04:44:49;;;;;;;1.60;1.02;;;12.70;99.90;;;;;;5032915;28;20505;-72
2022/07/01 04:47:16;;;;;;;2.78;1.00;;;12.70;99.90;;;;;;5030413;28;20339;-72
2022/07/01 04:49:43;;;;;;;2.05;1.08;;;12.70;99.90;;;;;;5028869;28;20022;-72
2022/07/01 04:52:11;;;;;;;2.58;0.80;;;12.70;99.90;;;;;;5033077;28;20076;-73
2022/07/01 04:54:38;;;;;;;1.55;0.52;;;12.70;99.90;;;;;;5030842;28;20029;-73
2022/07/01 04:57:05;;;;;;;1.65;0.70;;;12.60;99.90;;;;;;5031261;28;20029;-73
2022/07/01 04:59:33;;;;;;;0.70;0.52;;;12.60;99.90;;;;;;5028786;28;20061;-72
2022/07/01 05:02:01;;;;;;;4.22;0.80;;;12.60;99.90;;;;;;5028895;28;20122;-71
2022/07/01 05:04:28;;;;;;;1.33;0.70;;;12.50;99.90;;;;;;5038195;28;20026;-73
2022/07/01 05:06:56;;;;;;;1.80;0.57;;;12.50;99.90;;;;;;5028392;28;20051;-72
2022/07/01 05:09:23;;;;;;;1.70;0.70;;;12.50;99.90;;;;;;5033249;28;20105;-72
2022/07/01 05:11:50;;;;;;;2.50;0.60;;;12.40;99.90;;;;;;5028748;28;20412;-74
2022/07/01 05:14:18;;;;;;;1.48;0.63;;;12.40;99.90;;;;;;5034167;28;20117;-74
2022/07/01 05:16:45;;;;;;;1.52;0.85;;;12.40;99.90;;;;;;5030996;28;20029;-74
2022/07/01 05:22:01;;;;;;;2.60;1.10;;;12.40;99.90;;;;;;5032990;28;20036;-71
2022/07/01 05:24:31;;;;;;;1.83;0.93;;;12.30;99.90;;;;;;5050521;28;20459;-72
2022/07/01 05:27:00;;;;;;;1.25;0.60;;;12.30;99.90;;;;;;5033630;28;20036;-72
2022/07/01 05:29:29;;;;;;;1.35;0.98;;;12.30;99.90;;;;;;5030193;28;20079;-72
2022/07/01 05:31:56;;;;;;;1.85;1.08;;;12.20;99.90;;;;;;5033451;28;20471;-73
2022/07/01 05:34:24;;;;;;;2.25;1.23;;;12.30;99.90;;;;;;5029916;28;20059;-74
2022/07/01 05:36:51;;;;;;;3.22;1.10;;;12.20;99.90;;;;;;5035485;28;20014;-72
2022/07/01 05:39:19;;;;;;;2.08;1.00;;;12.20;99.90;;;;;;5030236;28;20049;-71
2022/07/01 05:41:46;;;;;;;3.35;1.25;;;12.20;99.90;;;;;;5032697;28;20478;-73
2022/07/01 05:44:13;;;;;;;3.70;2.25;;;12.10;99.90;;;;;;5031607;28;20155;-73
2022/07/01 05:46:41;;;;;;;3.83;2.20;;;12.10;99.90;;;;;;5036691;28;20126;-72
2022/07/01 05:49:08;;;;;;;2.58;2.05;;;12.10;99.90;;;;;;5031385;28;20037;-74
2022/07/01 05:51:36;;;;;;;5.55;2.55;;;12.00;99.90;;;;;;5032386;28;20203;-75
2022/07/01 05:54:03;;;;;;;3.00;1.98;;;12.00;99.90;;;;;;5031887;28;20041;-74
2022/07/01 05:56:32;;;;;;;2.00;1.42;;;12.00;99.90;;;;;;5030824;28;20109;-72
2022/07/01 05:58:59;;;;;;;3.25;1.75;;;12.00;99.90;;;;;;5033149;28;20033;-71
2022/07/01 06:01:27;;;;;;;7.20;2.63;;;12.00;99.90;;;;;;5032994;28;20110;-73
2022/07/01 06:03:55;;;;;;;7.38;2.95;;;11.90;99.90;;;;;;5033547;28;20491;-72
2022/07/01 06:06:23;;;;;;;7.20;2.95;;;11.90;99.90;;;;;;5033212;28;20384;-74
2022/07/01 06:08:51;;;;;;;3.83;2.47;;;11.90;99.90;;;;;;5030539;28;20443;-73
2022/07/01 06:11:18;;;;;;;4.07;1.95;;;11.80;99.90;;;;;;5013687;28;20171;-73
2022/07/01 06:13:45;;;;;;;4.55;3.13;;;11.90;99.90;;;;;;5033084;28;20515;-73
2022/07/01 06:16:13;;;;;;;4.65;2.42;;;11.80;99.90;;;;;;5030339;28;20071;-72
2022/07/01 06:18:40;;;;;;;5.63;2.67;;;11.80;99.90;;;;;;5032364;28;20030;-71
2022/07/01 06:21:07;;;;;;;4.70;2.97;;;11.80;99.90;;;;;;5030258;28;21746;-71
2022/07/01 06:23:34;;;;;;;4.90;3.90;;;11.80;99.90;;;;;;5039467;28;20037;-72
2022/07/01 06:26:02;;;;;;;7.72;5.43;;;11.80;99.90;;;;;;5046812;28;20229;-72
2022/07/01 06:28:29;;;;;;;5.82;4.47;;;11.80;99.90;;;;;;5045376;28;20028;-72
2022/07/01 06:30:58;;;;;;;6.90;3.88;;;11.80;99.90;;;;;;5030562;28;20033;-72
2022/07/01 06:33:27;;;;;;;5.13;4.07;;;11.80;99.90;;;;;;5039642;28;20037;-72
2022/07/01 06:35:54;;;;;;;6.93;5.03;;;11.80;99.90;;;;;;5040447;28;20033;-72
2022/07/01 06:38:21;;;;;;;5.35;3.80;;;11.70;99.90;;;;;;5048222;28;20112;-72
2022/07/01 06:41:26;;;;;;;2.78;2.42;;;11.80;99.90;;;;;;5041372;28;20017;-72
2022/07/01 06:43:36;;;;;;;5.10;2.40;;;11.70;99.90;;;;;;5038604;28;20473;-73
2022/07/01 06:46:04;;;;;;;2.50;1.92;;;11.70;99.90;;;;;;5045122;28;20062;-72
2022/07/01 06:48:32;;;;;;;2.92;1.83;;;11.70;99.90;;;;;;5049545;28;20025;-73
2022/07/01 06:51:02;;;;;;;1.88;1.30;;;11.70;99.90;;;;;;5034357;28;20017;-72
2022/07/01 06:53:30;;;;;;;1.35;0.95;;;11.60;99.90;;;;;;5045521;28;20048;-73
2022/07/01 06:55:58;;;;;;;2.75;1.23;;;11.60;99.90;;;;;;5034414;28;20086;-72
2022/07/01 06:58:25;;;;;;;2.75;1.75;;;11.60;99.90;;;;;;5039248;28;20029;-72
2022/07/01 07:00:53;;;;;;;2.13;1.05;;;11.60;99.90;;;;;;5035890;28;20037;-72
2022/07/01 07:03:20;;;;;;;2.28;1.08;;;11.60;99.90;;;;;;5037854;28;20481;-72
2022/07/01 07:05:47;;;;;;;3.38;1.25;;;11.60;99.90;;;;;;5038758;28;20048;-72
2022/07/01 07:08:15;;;;;;;5.00;2.50;;;11.60;99.90;;;;;;5032307;28;20029;-72
2022/07/01 07:10:43;;;;;;;3.13;1.60;;;11.60;99.90;;;;;;5034445;28;20024;-72
2022/07/01 07:13:10;;;;;;;3.55;1.67;;;11.60;99.90;;;;;;5041266;28;20073;-72
2022/07/01 07:15:41;;;;;;;4.10;2.30;;;11.60;99.90;;;;;;5031470;28;20052;-72
2022/07/01 07:18:09;;;;;;;3.50;1.85;;;11.60;99.90;;;;;;5038683;28;20063;-72
2022/07/01 07:20:36;;;;;;;3.88;1.83;;;11.60;99.90;;;;;;5038677;28;20030;-72
2022/07/01 07:23:04;;;;;;;3.40;2.67;;;11.60;99.90;;;;;;5035640;28;20024;-70
2022/07/01 07:25:31;;;;;;;4.53;2.85;;;11.60;99.90;;;;;;5040105;28;20056;-72
2022/07/01 07:27:59;;;;;;;6.63;5.75;;;11.60;99.90;;;;;;5034711;28;20033;-70
2022/07/01 07:30:26;;;;;;;4.95;3.75;;;11.60;99.90;;;;;;5044663;28;20473;-72
2022/07/01 07:32:54;;;;;;;5.07;2.78;;;11.50;99.90;;;;;;5027264;28;20108;-71
2022/07/01 07:35:21;;;;;;;3.47;1.70;;;11.50;99.90;;;;;;5013892;28;20543;-71
2022/07/01 07:37:48;;;;;;;2.42;2.03;;;11.50;99.90;;;;;;5030070;28;20136;-71
2022/07/01 07:40:19;;;;;;;1.63;1.45;;;11.50;99.90;;;;;;5034188;28;20048;-73
2022/07/01 07:42:47;;;;;;;3.38;1.77;;;11.50;99.90;;;;;;5030653;28;20136;-72
2022/07/01 07:45:16;;;;;;;4.85;2.03;;;11.50;99.90;;;;;;5028863;28;20036;-72
2022/07/01 07:47:48;;;;;;;1.75;1.50;;;11.50;99.90;;;;;;5034386;28;20037;-71
2022/07/01 07:50:16;;;;;;;2.38;1.30;;;11.50;99.90;;;;;;5032049;28;20150;-72
2022/07/01 07:52:43;;;;;;;2.72;1.50;;;11.50;99.90;;;;;;5028672;28;20479;-72
2022/07/01 07:55:11;;;;;;;2.35;1.00;;;11.50;99.90;;;;;;5030959;28;20386;-71
2022/07/01 07:57:40;;;;;;;2.50;1.00;;;11.40;99.90;;;;;;5030688;28;20553;-71
2022/07/01 08:00:11;;;;;;;2.10;1.38;;;11.40;99.90;;;;;;5032844;28;20110;-71
2022/07/01 08:02:39;;;;;;;1.23;1.10;;;11.40;99.90;;;;;;5030682;28;20025;-71
2022/07/01 08:05:08;;;;;;;1.55;1.10;;;11.50;99.90;;;;;;5028642;28;20392;-71
2022/07/01 08:07:42;;;;;;;3.08;1.60;;;11.40;99.90;;;;;;5034086;28;20036;-71
2022/07/01 08:10:12;;;;;;;1.95;1.52;;;11.40;99.90;;;;;;5032210;28;20017;-71
2022/07/01 08:12:40;;;;;;;3.42;1.40;;;11.40;99.90;;;;;;5029858;28;20036;-73
2022/07/01 08:15:09;;;;;;;2.60;1.70;;;11.40;99.90;;;;;;5029801;28;20033;-72
2022/07/01 08:17:36;;;;;;;2.30;1.38;;;11.40;99.90;;;;;;5028837;28;20037;-70
2022/07/01 08:20:04;;;;;;;1.25;1.08;;;11.40;99.90;;;;;;5031923;28;20058;-71
2022/07/01 08:22:31;;;;;;;10.98;1.48;;;11.40;99.90;;;;;;5036550;28;20041;-70
2022/07/01 08:24:58;;;;;;;3.92;1.63;;;11.30;99.90;;;;;;5035746;28;20104;-73
2022/07/01 08:27:26;;;;;;;3.05;1.05;;;11.30;99.90;;;;;;5042989;28;20048;-72
2022/07/01 08:29:53;;;;;;;3.53;1.60;;;11.30;99.90;;;;;;5040495;28;20128;-71
2022/07/01 08:32:22;;;;;;;3.60;1.15;;;11.30;99.90;;;;;;5035227;28;20450;-73
2022/07/01 08:34:49;;;;;;;3.13;1.30;;;11.30;99.90;;;;;;5021487;28;20356;-72
2022/07/01 08:37:16;;;;;;;6.03;2.22;;;11.30;99.90;;;;;;5057918;28;20032;-72
2022/07/01 08:39:43;;;;;;;2.88;2.08;;;11.30;99.90;;;;;;5046843;28;20506;-72
2022/07/01 08:42:11;;;;;;;5.38;1.85;;;11.30;99.90;;;;;;5039300;28;21787;-73
2022/07/01 08:44:38;;;;;;;2.50;1.52;;;11.30;99.90;;;;;;5040743;28;20032;-71
2022/07/01 08:47:11;;;;;;;1.55;1.08;;;11.30;99.90;;;;;;5052390;28;20132;-72
2022/07/01 08:49:38;;;;;;;4.07;2.10;;;11.20;99.90;;;;;;5042320;28;20525;-72
2022/07/01 08:52:09;;;;;;;3.00;1.70;;;11.20;99.90;;;;;;5052051;28;20053;-72
2022/07/01 08:54:38;;;;;;;2.55;1.80;;;11.30;99.90;;;;;;5041129;28;20208;-72
2022/07/01 08:57:06;;;;;;;8.73;4.43;;;11.30;99.90;;;;;;5039727;28;20059;-71
2022/07/01 08:59:34;;;;;;;13.57;7.80;;;11.30;99.90;;;;;;5053499;28;20021;-72
2022/07/01 09:02:04;;;;;;;11.48;7.80;;;11.30;99.90;;;;;;5051116;28;20094;-71
2022/07/01 09:04:33;;;;;;;2.70;2.30;;;11.30;99.90;;;;;;5038169;28;20516;-74
2022/07/01 09:07:07;;;;;;;1.10;0.98;;;11.30;99.90;;;;;;5046545;28;20037;-74
2022/07/01 09:09:36;;;;;;;3.70;2.90;;;11.30;99.90;;;;;;5053151;28;20052;-74
2022/07/01 09:12:04;;;;;;;2.45;1.90;;;11.30;99.90;;;;;;5045893;28;20434;-73
2022/07/01 09:14:34;;;;;;;2.28;1.02;;;11.30;99.90;;;;;;5045060;28;20025;-73
2022/07/01 09:17:05;;;;;;;1.67;0.70;;;11.40;99.90;;;;;;5034681;28;20037;-73
2022/07/01 09:19:40;;;;;;;1.05;0.65;;;11.40;99.90;;;;;;5038660;28;20499;-73
2022/07/01 09:22:07;;;;;;;1.05;0.85;;;11.40;99.90;;;;;;5042448;28;20123;-72
2022/07/01 09:24:37;;;;;;;5.35;3.80;;;11.40;99.90;;;;;;5045141;28;20095;-72
2022/07/01 09:27:16;;;;;;;4.63;3.85;;;11.40;99.90;;;;;;5043552;28;20150;-74
2022/07/01 09:29:46;;;;;;;4.72;2.75;;;11.40;99.90;;;;;;5036119;28;20025;-73
2022/07/01 09:32:20;;;;;;;5.07;4.10;;;11.40;99.90;;;;;;5051843;28;20036;-74
2022/07/01 09:34:52;;;;;;;4.88;2.88;;;11.50;99.90;;;;;;5037404;28;20036;-70
2022/07/01 09:37:24;;;;;;;5.40;2.40;;;11.50;99.90;;;;;;5046616;28;20079;-73
2022/07/01 09:39:51;;;;;;;2.70;2.10;;;11.40;99.90;;;;;;5036722;28;20372;-73
2022/07/01 09:42:20;;;;;;;4.45;2.08;;;11.40;99.90;;;;;;5049112;28;20033;-73
2022/07/01 09:44:59;;;;;;;3.25;1.70;;;11.40;99.90;;;;;;5032186;28;20028;-74
2022/07/01 09:47:28;;;;;;;4.43;2.13;;;11.40;99.90;;;;;;5040226;28;20044;-74
2022/07/01 09:49:56;;;;;;;5.15;3.05;;;11.40;99.90;;;;;;5033563;28;20498;-73
2022/07/01 09:52:25;;;;;;;3.03;1.92;;;11.40;99.90;;;;;;5031545;28;20380;-74
2022/07/01 09:54:53;;;;;;;2.67;1.90;;;11.40;99.90;;;;;;5050359;28;20490;-73
2022/07/01 09:57:22;;;;;;;4.07;2.75;;;11.40;99.90;;;;;;5035034;28;20041;-73
2022/07/01 09:59:51;;;;;;;5.05;3.00;;;11.40;99.90;;;;;;5043987;28;20033;-74
2022/07/01 10:02:23;;;;;;;5.63;3.13;;;11.40;99.90;;;;;;5042605;28;20025;-72
2022/07/01 10:04:59;;;;;;;3.15;2.35;;;11.40;99.90;;;;;;5032577;28;20026;-72
2022/07/01 10:07:28;;;;;;;;;;;11.40;99.90;;;;;;5048100;28;20512;-72
2022/07/01 10:10:26;;;;;;;2.25;1.95;;;11.40;99.90;;;;;;5047094;28;20493;-72
2022/07/01 10:12:55;;;;;;;3.13;1.95;;;11.40;99.90;;;;;;5032424;28;20037;-73
2022/07/01 10:15:23;;;;;;;2.35;1.67;;;11.40;99.90;;;;;;5046498;28;20452;-73
2022/07/01 10:17:55;;;;;;;2.40;1.50;;;11.50;99.90;;;;;;5032117;28;20097;-72
2022/07/01 10:20:28;;;;;;;4.88;2.70;;;11.40;99.90;;;;;;5032454;28;20025;-72
2022/07/01 10:23:04;;;;;;;4.03;3.17;;;11.40;99.90;;;;;;5031954;28;20057;-73
2022/07/01 10:25:40;;;;;;;5.47;3.60;;;11.40;99.90;;;;;;5047130;28;20086;-72
2022/07/01 10:28:25;;;;;;;3.65;2.58;;;11.40;99.90;;;;;;5039729;28;20044;-73
2022/07/01 10:30:55;;;;;;;3.03;2.08;;;11.40;99.90;;;;;;5035031;28;20095;-74
2022/07/01 10:33:49;;;;;;;2.00;1.70;;;11.40;99.90;;;;;;5032183;28;20033;-74
2022/07/01 10:36:31;;;;;;;1.35;1.10;;;11.30;99.90;;;;;;5043549;28;20029;-73
2022/07/01 10:39:08;;;;;;;1.48;0.88;;;11.30;99.90;;;;;;5047351;28;20033;-73
2022/07/01 10:41:36;;;;;;;1.20;1.10;;;11.30;99.90;;;;;;5044322;28;20120;-73
2022/07/01 10:44:09;;;;;;;1.77;1.05;;;11.30;99.90;;;;;;5051267;28;20141;-74
2022/07/01 10:46:45;;;;;;;0.80;0.68;;;11.30;99.90;;;;;;5049664;28;20123;-73
2022/07/01 10:49:18;;;;;;;1.52;0.85;;;11.30;99.90;;;;;;5036677;28;20112;-74
2022/07/01 10:51:57;;;;;;;2.75;1.02;;;11.30;99.90;;;;;;5034790;28;20340;-73
2022/07/01 10:54:38;;;;;;;1.23;0.82;;;11.30;99.90;;;;;;5031548;28;20545;-73
2022/07/01 10:57:20;;;;;;;1.55;0.88;;;11.30;99.90;;;;;;5033681;28;20119;-73
2022/07/01 10:59:57;;;;;;;1.42;0.50;;;11.30;99.90;;;;;;5037575;28;20040;-74
2022/07/01 11:02:25;;;;;;;0.77;0.45;;;11.30;99.90;;;;;;5050464;28;20021;-73
2022/07/01 11:05:02;;;;;;;0.50;0.40;;;11.30;99.90;;;;;;5047142;28;20493;-74
2022/07/01 11:07:34;;;;;;;0.70;0.40;;;11.30;99.90;;;;;;5048398;28;20127;-72
2022/07/01 11:10:04;;;;;;;3.78;1.48;;;11.30;99.90;;;;;;5045610;28;20036;-73
2022/07/01 11:12:32;;;;;;;0.93;0.43;;;11.30;99.90;;;;;;5042689;28;20446;-72
2022/07/01 11:15:01;;;;;;;1.80;0.65;;;11.30;99.90;;;;;;5032317;28;20472;-72
2022/07/01 11:17:29;;;;;;;2.13;1.55;;;11.30;99.90;;;;;;5039116;28;20414;-72
2022/07/01 11:19:58;;;;;;;1.67;1.10;;;11.30;99.90;;;;;;5031716;28;20407;-72
2022/07/01 11:22:30;;;;;;;4.07;2.95;;;11.30;99.90;;;;;;5033470;28;20159;-72
2022/07/01 11:25:00;;;;;;;5.68;3.60;;;11.30;99.90;;;;;;5032410;28;20044;-73
2022/07/01 11:27:29;;;;;;;7.57;3.78;;;11.20;99.90;;;;;;5032287;28;20427;-71
2022/07/01 11:29:59;;;;;;;4.38;2.40;;;11.20;99.90;;;;;;5038209;28;20029;-72
2022/07/01 11:32:32;;;;;;;4.53;2.65;;;11.20;99.90;;;;;;5050451;28;20025;-73
2022/07/01 11:35:01;;;;;;;4.00;2.00;;;11.20;99.90;;;;;;5042690;28;20394;-73
2022/07/01 11:40:19;;;;;;;1.10;0.70;;;11.20;99.90;;;;;;5035416;28;20439;-72
2022/07/01 11:42:46;;;;;;;1.38;0.60;;;11.20;99.90;;;;;;5038192;28;20065;-74
2022/07/01 11:45:27;;;;;;;2.13;0.60;;;11.20;99.90;;;;;;5049424;28;20021;-73
2022/07/01 11:47:55;;;;;;;0.80;0.40;;;11.20;99.90;;;;;;5050617;28;20045;-73
2022/07/01 11:50:22;;;;;;;0.90;0.30;;;11.20;99.90;;;;;;5048335;28;20062;-73
2022/07/01 11:52:54;;;;;;;0.68;0.60;;;11.20;99.90;;;;;;5030750;28;20093;-74
2022/07/01 11:55:21;;;;;;;3.65;0.80;;;11.20;99.90;;;;;;5031680;28;20029;-74
2022/07/01 11:57:52;;;;;;;1.00;0.80;;;11.20;99.90;;;;;;5031293;28;20029;-73
2022/07/01 12:00:20;;;;;;;2.80;0.90;;;11.20;99.90;;;;;;5040648;28;20390;-72
2022/07/01 12:02:50;;;;;;;0.90;0.70;;;11.30;99.90;;;;;;5041931;28;20025;-73
2022/07/01 12:05:19;;;;;;;0.75;0.65;;;11.20;99.90;;;;;;5040550;28;20470;-72
2022/07/01 12:07:47;;;;;;;2.10;1.10;;;11.20;99.90;;;;;;5049233;28;20123;-74
2022/07/01 12:10:16;;;;;;;4.78;1.33;;;11.30;99.90;;;;;;5040127;28;20028;-72
2022/07/01 12:12:44;;;;;;;2.08;1.00;;;11.20;99.90;;;;;;5041884;28;20052;-73
2022/07/01 12:15:15;;;;;;;2.80;0.98;;;11.20;99.90;;;;;;5030500;28;20053;-74
2022/07/01 12:17:42;;;;;;;2.67;1.00;;;11.20;99.90;;;;;;5037155;28;20025;-74
2022/07/01 12:20:10;;;;;;;2.13;1.30;;;11.20;99.90;;;;;;5045142;28;20033;-72
2022/07/01 12:22:37;;;;;;;2.05;1.17;;;11.20;99.90;;;;;;5059355;28;20116;-72
2022/07/01 12:25:14;;;;;;;1.52;1.10;;;11.10;99.90;;;;;;5048716;28;20478;-73
2022/07/01 12:27:43;;;;;;;1.52;1.02;;;11.10;99.90;;;;;;5045642;28;20490;-73
2022/07/01 12:30:13;;;;;;;2.10;1.45;;;11.10;99.90;;;;;;5053044;28;20036;-73
2022/07/01 12:32:43;;;;;;;4.03;2.67;;;11.10;99.90;;;;;;5051359;28;20117;-72
2022/07/01 12:35:55;;;;;;;2.53;2.05;;;11.10;99.90;;;;;;5035503;28;20163;-73
2022/07/01 12:37:58;;;;;;;1.92;1.70;;;11.00;99.90;;;;;;5045129;28;20428;-72
2022/07/01 12:40:29;;;;;;;2.88;1.90;;;11.00;99.90;;;;;;5064422;28;20025;-72
2022/07/01 12:43:06;;;;;;;1.45;1.13;;;10.90;99.90;;;;;;5069144;28;20101;-73
2022/07/01 12:45:39;;;;;;;1.92;1.38;;;10.90;99.90;;;;;;5054021;28;20420;-76
2022/07/01 12:48:07;;;;;;;1.80;1.20;;;10.90;99.90;;;;;;5048828;28;20533;-74
2022/07/01 12:50:35;;;;;;;1.65;0.85;;;10.80;99.90;;;;;;5045161;28;20542;-72
2022/07/01 12:53:19;;;;;;;1.85;0.93;;;10.80;99.90;;;;;;5035097;28;20152;-71
2022/07/01 12:55:49;;;;;;;1.95;1.15;;;10.80;99.90;;;;;;5037196;28;20064;-73
2022/07/01 12:58:25;;;;;;;1.27;1.08;;;10.80;99.90;;;;;;5045924;28;20033;-73
2022/07/01 13:00:55;;;;;;;3.10;1.42;;;10.80;99.90;;;;;;5041695;28;20040;-75
2022/07/01 13:03:24;;;;;;;1.20;0.77;;;10.80;99.90;;;;;;5046982;28;20106;-74